createdAt,value
2019-03-11T00:01:56.976Z,20.17
2019-03-11T00:07:01.430Z,20.05
2019-03-11T00:12:07.605Z,17.80
2019-03-11T00:17:11.069Z,17.90
2019-03-11T00:22:16.083Z,16.73
2019-03-11T00:27:19.470Z,13.20
2019-03-11T00:32:22.871Z,12.35
2019-03-11T00:37:28.998Z,10.20
2019-03-11T00:42:33.919Z,8.10
2019-03-11T00:47:39.240Z,8.08
2019-03-11T00:52:43.983Z,7.60
2019-03-11T00:57:48.786Z,6.58
2019-03-11T01:02:52.205Z,7.58
2019-03-11T01:07:57.573Z,6.83
2019-03-11T01:13:01.063Z,7.25
2019-03-11T01:18:06.083Z,7.50
2019-03-11T01:23:10.321Z,10.38
2019-03-11T01:28:15.742Z,13.55
2019-03-11T01:38:47.706Z,6.50
2019-03-11T01:43:53.327Z,5.97
2019-03-11T01:49:05.561Z,5.92
2019-03-11T01:54:13.917Z,7.05
2019-03-11T01:59:20.634Z,6.97
2019-03-11T02:04:26.224Z,5.90
2019-03-11T02:09:52.921Z,5.95
2019-03-11T02:14:49.530Z,4.78
2019-03-11T02:19:56.324Z,4.80
2019-03-11T02:25:02.173Z,5.37
2019-03-11T02:30:12.866Z,5.20
2019-03-11T02:35:31.221Z,8.70
2019-03-11T02:40:39.138Z,10.70
2019-03-11T02:45:46.002Z,7.47
2019-03-11T02:50:49.375Z,5.17
2019-03-11T02:55:52.820Z,5.45
2019-03-11T03:01:02.489Z,5.37
2019-03-11T03:11:15.761Z,5.05
2019-03-11T03:16:19.788Z,5.47
2019-03-11T03:21:25.600Z,6.47
2019-03-11T03:26:29.432Z,6.03
2019-03-11T03:31:35.102Z,6.65
2019-03-11T03:36:40.364Z,7.10
2019-03-11T03:41:44.509Z,8.10
2019-03-11T03:46:47.831Z,8.98
2019-03-11T03:51:51.219Z,10.50
2019-03-11T03:56:54.597Z,10.90
2019-03-11T04:01:59.592Z,13.35
2019-03-11T04:07:03.132Z,12.65
2019-03-11T04:12:06.495Z,13.38
2019-03-11T04:17:10.075Z,12.65
2019-03-11T04:22:13.442Z,12.30
2019-03-11T04:27:17.499Z,13.25
2019-03-11T04:32:22.475Z,13.20
2019-03-11T04:37:26.304Z,13.93
2019-03-11T04:42:29.685Z,15.00
2019-03-11T04:47:33.001Z,16.15
2019-03-11T04:52:36.333Z,15.32
2019-03-11T04:57:53.191Z,16.20
2019-03-11T05:02:56.556Z,15.95
2019-03-11T05:08:00.009Z,16.52
2019-03-11T05:13:03.373Z,15.45
2019-03-11T05:18:06.682Z,13.90
2019-03-11T05:23:09.973Z,13.93
2019-03-11T05:28:13.275Z,13.88
2019-03-11T05:33:16.585Z,13.85
2019-03-11T05:38:21.156Z,13.78
2019-03-11T05:43:24.517Z,14.43
2019-03-11T05:48:27.875Z,13.78
2019-03-11T05:53:31.259Z,13.95
2019-03-11T05:58:34.554Z,13.83
2019-03-11T06:03:38.010Z,12.73
2019-03-11T06:09:34.050Z,11.60
2019-03-11T06:14:37.470Z,11.85
2019-03-11T06:19:40.991Z,10.43
2019-03-11T06:24:44.397Z,10.60
2019-03-11T06:29:47.727Z,10.58
2019-03-11T06:34:51.831Z,10.82
2019-03-11T06:40:48.502Z,11.33
2019-03-11T06:45:52.325Z,10.25
2019-03-11T06:50:55.706Z,10.40
2019-03-11T06:56:02.240Z,9.00
2019-03-11T07:01:06.133Z,8.48
2019-03-11T07:06:12.130Z,8.60
2019-03-11T07:11:15.805Z,8.53
2019-03-11T07:16:19.408Z,7.37
2019-03-11T07:21:22.781Z,7.05
2019-03-11T07:26:26.094Z,5.62
2019-03-11T07:31:29.538Z,5.10
2019-03-11T07:36:32.965Z,4.65
2019-03-11T07:41:37.316Z,8.25
2019-03-11T07:46:40.723Z,3.90
2019-03-11T07:51:44.130Z,4.10
2019-03-11T07:56:49.353Z,3.80
2019-03-11T08:01:54.952Z,3.90
2019-03-11T08:07:01.525Z,3.27
2019-03-11T08:12:06.031Z,2.90
2019-03-11T08:17:10.536Z,3.50
2019-03-11T08:22:13.860Z,3.17
2019-03-11T08:32:42.469Z,3.10
2019-03-11T08:37:46.542Z,3.50
2019-03-11T08:42:51.147Z,2.33
2019-03-11T08:47:56.223Z,2.10
2019-03-11T08:53:02.692Z,1.92
2019-03-11T08:58:06.425Z,1.87
2019-03-11T09:03:09.733Z,2.37
2019-03-11T09:08:14.925Z,1.75
2019-03-11T09:13:18.376Z,1.98
2019-03-11T09:18:21.833Z,2.30
2019-03-11T09:23:25.162Z,2.08
2019-03-11T09:28:28.635Z,2.37
2019-03-11T09:33:32.164Z,2.58
2019-03-11T09:38:36.625Z,2.12
2019-03-11T09:43:40.602Z,1.90
2019-03-11T09:48:44.999Z,1.60
2019-03-11T09:53:49.215Z,1.95
2019-03-11T09:58:52.550Z,1.75
2019-03-11T10:03:56.121Z,1.77
2019-03-11T10:09:01.396Z,1.70
2019-03-11T10:14:04.703Z,1.65
2019-03-11T10:19:08.154Z,2.12
2019-03-11T10:24:16.883Z,2.12
2019-03-11T10:29:21.169Z,2.15
2019-03-11T10:34:24.534Z,1.95
2019-03-11T10:39:28.084Z,2.33
2019-03-11T10:44:31.386Z,2.42
2019-03-11T10:49:35.619Z,2.27
2019-03-11T10:54:40.059Z,2.30
2019-03-11T10:59:45.093Z,2.90
2019-03-11T11:04:49.501Z,3.00
2019-03-11T11:09:53.717Z,2.72
2019-03-11T11:14:57.057Z,3.45
2019-03-11T11:20:03.758Z,2.87
2019-03-11T11:25:09.929Z,3.05
2019-03-11T11:30:21.406Z,3.00
2019-03-11T11:35:24.706Z,3.10
2019-03-11T11:40:29.802Z,3.33
2019-03-11T11:45:33.480Z,3.08
2019-03-11T11:50:36.843Z,3.60
2019-03-11T11:55:40.139Z,3.90
2019-03-11T12:00:46.804Z,3.60
2019-03-11T12:05:50.164Z,4.15
2019-03-11T12:10:53.620Z,4.10
2019-03-11T12:15:56.952Z,4.28
2019-03-11T12:21:00.996Z,4.33
2019-03-11T12:26:04.377Z,5.20
2019-03-11T12:31:12.633Z,4.62
2019-03-11T12:36:21.984Z,4.17
2019-03-11T12:41:26.456Z,5.60
2019-03-11T12:46:29.815Z,5.47
2019-03-11T12:51:33.134Z,4.50
2019-03-11T12:56:39.203Z,4.85
2019-03-11T13:01:42.506Z,4.47
2019-03-11T13:06:46.165Z,3.92
2019-03-11T13:11:50.174Z,4.17
2019-03-11T13:16:55.300Z,4.22
2019-03-11T13:21:58.590Z,4.75
2019-03-11T13:27:01.915Z,3.70
2019-03-11T13:32:05.963Z,3.80
2019-03-11T13:37:09.263Z,5.60
2019-03-11T13:42:12.998Z,4.75
2019-03-11T13:47:17.140Z,5.40
2019-03-11T13:52:20.529Z,5.62
2019-03-11T13:57:23.966Z,6.47
2019-03-11T14:02:27.265Z,4.87
2019-03-11T14:07:30.565Z,4.17
2019-03-11T14:12:35.231Z,5.62
2019-03-11T14:17:39.973Z,6.10
2019-03-11T14:22:43.362Z,6.37
2019-03-11T14:27:47.001Z,6.08
2019-03-11T14:32:50.394Z,6.70
2019-03-11T14:37:55.296Z,6.65
2019-03-11T14:42:58.616Z,6.28
2019-03-11T14:48:03.113Z,5.30
2019-03-11T14:53:06.449Z,5.97
2019-03-11T14:58:11.401Z,4.92
2019-03-11T15:03:14.910Z,5.70
2019-03-11T15:08:20.794Z,4.03
2019-03-11T15:13:24.107Z,4.37
2019-03-11T15:18:29.060Z,4.62
2019-03-11T15:23:33.287Z,5.15
2019-03-11T15:28:37.876Z,3.95
2019-03-11T15:33:41.306Z,4.05
2019-03-11T15:38:44.598Z,4.35
2019-03-11T15:43:48.876Z,4.12
2019-03-11T15:48:52.437Z,4.30
2019-03-11T15:54:09.868Z,4.22
2019-03-11T15:59:13.368Z,4.05
2019-03-11T16:04:19.744Z,4.47
2019-03-11T16:09:25.003Z,5.03
2019-03-11T16:14:31.327Z,6.80
2019-03-11T16:19:34.821Z,7.62
2019-03-11T16:24:39.533Z,8.10
2019-03-11T16:29:42.949Z,9.08
2019-03-11T16:34:46.694Z,8.60
2019-03-11T16:39:50.182Z,8.68
2019-03-11T16:44:54.623Z,8.45
2019-03-11T16:49:58.529Z,9.50
2019-03-11T16:55:02.175Z,10.70
2019-03-11T17:00:11.549Z,13.00
2019-03-11T17:05:14.961Z,10.50
2019-03-11T17:10:21.566Z,11.63
2019-03-11T17:15:25.081Z,13.32
2019-03-11T17:20:28.408Z,13.13
2019-03-11T17:25:32.553Z,15.00
2019-03-11T17:30:35.846Z,14.90
2019-03-11T17:35:39.186Z,12.30
2019-03-11T17:40:42.589Z,12.47
2019-03-11T17:45:47.302Z,12.80
2019-03-11T17:50:51.957Z,14.35
2019-03-11T17:55:56.228Z,17.00
2019-03-11T18:01:00.469Z,16.50
2019-03-11T18:06:11.774Z,16.42
2019-03-11T18:11:09.261Z,17.02
2019-03-11T18:16:12.641Z,16.90
2019-03-11T18:21:15.963Z,16.93
2019-03-11T18:26:23.007Z,18.50
2019-03-11T18:31:26.802Z,18.60
2019-03-11T18:36:31.601Z,15.08
2019-03-11T18:41:36.224Z,15.13
2019-03-11T18:46:43.981Z,15.83
2019-03-11T18:51:48.859Z,18.77
2019-03-11T18:56:52.246Z,19.35
2019-03-11T19:02:04.588Z,19.10
2019-03-11T19:07:10.465Z,15.65
2019-03-11T19:12:14.812Z,13.68
2019-03-11T19:17:18.931Z,14.00
2019-03-11T19:22:24.002Z,15.68
2019-03-11T19:27:36.548Z,16.42
2019-03-11T19:32:39.955Z,18.35
2019-03-11T19:37:43.345Z,17.98
2019-03-11T19:42:47.296Z,18.50
2019-03-11T19:47:51.105Z,20.23
2019-03-11T19:52:59.037Z,21.20
2019-03-11T19:58:01.640Z,25.32
2019-03-11T20:03:26.571Z,23.45
2019-03-11T20:08:20.301Z,21.20
2019-03-11T20:13:25.125Z,21.93
2019-03-11T20:18:33.610Z,22.37
2019-03-11T20:23:47.847Z,22.10
2019-03-11T20:29:05.829Z,21.42
2019-03-11T20:34:27.786Z,19.85
2019-03-11T20:44:49.072Z,20.17
2019-03-11T20:49:53.322Z,19.90
2019-03-11T21:05:42.889Z,18.62
2019-03-11T21:10:48.054Z,22.98
2019-03-11T21:15:58.831Z,20.80
2019-03-11T21:21:05.097Z,21.33
2019-03-11T21:26:12.751Z,19.50
2019-03-11T21:37:01.658Z,22.87
2019-03-11T21:42:17.891Z,24.00
2019-03-11T21:47:14.716Z,20.30
2019-03-11T21:52:42.731Z,20.72
2019-03-11T21:58:13.105Z,19.95
2019-03-11T22:08:35.708Z,20.77
2019-03-11T22:18:55.560Z,23.45
2019-03-11T22:24:06.460Z,25.30
2019-03-11T22:29:11.852Z,24.95
2019-03-11T22:34:15.711Z,23.55
2019-03-11T22:39:22.473Z,24.80
2019-03-11T22:44:28.050Z,27.85
2019-03-11T22:49:34.865Z,26.65
2019-03-11T22:54:40.279Z,25.75
2019-03-11T22:59:45.968Z,25.00
2019-03-11T23:04:49.310Z,27.32
2019-03-11T23:09:53.996Z,27.98
2019-03-11T23:14:57.864Z,29.40
2019-03-11T23:20:01.575Z,30.90
2019-03-11T23:25:13.698Z,27.87
2019-03-11T23:30:21.437Z,26.25
2019-03-11T23:35:25.467Z,28.35
2019-03-11T23:40:29.569Z,29.05
2019-03-11T23:45:33.423Z,32.25
2019-03-11T23:50:38.007Z,31.75
2019-03-11T23:55:43.053Z,27.90
